createdAt,value
2023-03-26T00:01:46.666Z,6.82
2023-03-26T00:04:21.959Z,6.86
2023-03-26T00:06:50.285Z,6.89
2023-03-26T00:09:19.220Z,6.88
2023-03-26T00:11:47.312Z,6.90
2023-03-26T00:14:17.571Z,6.90
2023-03-26T00:16:45.662Z,6.85
2023-03-26T00:19:13.905Z,6.83
2023-03-26T00:21:43.199Z,6.78
2023-03-26T00:24:14.888Z,6.73
2023-03-26T00:26:43.094Z,6.75
2023-03-26T00:29:13.719Z,6.71
2023-03-26T00:31:46.436Z,6.66
2023-03-26T00:34:15.716Z,6.61
2023-03-26T00:36:46.893Z,6.60
2023-03-26T00:39:15.294Z,6.58
2023-03-26T00:41:43.685Z,6.54
2023-03-26T00:44:11.966Z,6.52
2023-03-26T00:46:39.746Z,6.45
2023-03-26T00:49:10.999Z,6.43
2023-03-26T00:51:39.394Z,6.41
2023-03-26T00:54:09.263Z,6.39
2023-03-26T00:56:36.999Z,6.39
2023-03-26T00:59:05.092Z,6.36
2023-03-26T01:01:32.755Z,6.36
2023-03-26T01:04:24.121Z,6.38
2023-03-26T01:06:52.125Z,6.38
2023-03-26T01:09:23.390Z,6.34
2023-03-26T01:11:51.313Z,6.33
2023-03-26T01:14:21.572Z,6.30
2023-03-26T01:16:51.988Z,6.28
2023-03-26T01:19:23.344Z,6.23
2023-03-26T01:21:51.077Z,6.23
2023-03-26T01:24:20.116Z,6.22
2023-03-26T01:27:01.661Z,6.20
2023-03-26T01:29:33.874Z,6.19
2023-03-26T01:32:09.862Z,6.16
2023-03-26T01:34:49.695Z,6.13
2023-03-26T01:37:23.158Z,6.18
2023-03-26T01:39:56.970Z,6.20
2023-03-26T01:42:30.328Z,6.17
2023-03-26T01:45:01.124Z,6.18
2023-03-26T01:47:28.949Z,6.17
2023-03-26T01:49:56.712Z,6.14
2023-03-26T01:52:26.149Z,6.14
2023-03-26T01:54:55.680Z,6.11
2023-03-26T01:57:34.372Z,6.10
2023-03-26T02:00:18.089Z,6.13
2023-03-26T02:02:56.634Z,6.15
2023-03-26T02:05:27.237Z,6.19
2023-03-26T02:07:58.918Z,6.21
2023-03-26T02:10:29.555Z,6.24
2023-03-26T02:12:57.910Z,6.25
2023-03-26T02:15:25.956Z,6.25
2023-03-26T02:17:53.666Z,6.29
2023-03-26T02:20:22.365Z,6.29
2023-03-26T02:22:50.006Z,6.32
2023-03-26T02:25:19.232Z,6.35
2023-03-26T02:27:49.170Z,6.35
2023-03-26T02:30:18.337Z,6.36
2023-03-26T02:32:45.974Z,6.37
2023-03-26T02:35:13.939Z,6.39
2023-03-26T02:37:42.084Z,6.42
2023-03-26T02:40:11.784Z,6.41
2023-03-26T02:42:39.628Z,6.44
2023-03-26T02:45:09.315Z,6.45
2023-03-26T02:47:36.947Z,6.47
2023-03-26T02:50:04.852Z,6.48
2023-03-26T02:52:33.694Z,6.49
2023-03-26T02:55:01.424Z,6.51
2023-03-26T02:57:29.206Z,6.52
2023-03-26T02:59:56.821Z,6.54
2023-03-26T03:02:25.938Z,6.57
2023-03-26T03:05:01.313Z,6.57
2023-03-26T03:07:29.292Z,6.58
2023-03-26T03:10:02.282Z,6.60
2023-03-26T03:12:29.949Z,6.63
2023-03-26T03:14:57.582Z,6.67
2023-03-26T03:17:26.701Z,6.69
2023-03-26T03:19:54.408Z,6.71
2023-03-26T03:22:22.295Z,6.70
2023-03-26T03:24:51.904Z,6.67
2023-03-26T03:27:23.759Z,6.66
2023-03-26T03:29:53.681Z,6.71
2023-03-26T03:32:22.529Z,6.74
2023-03-26T03:34:51.947Z,6.72
2023-03-26T03:37:19.790Z,6.75
2023-03-26T03:39:47.515Z,6.73
2023-03-26T03:42:15.141Z,6.75
2023-03-26T03:44:42.833Z,6.78
2023-03-26T03:47:13.590Z,6.79
2023-03-26T03:49:41.255Z,6.81
2023-03-26T03:52:10.207Z,6.83
2023-03-26T03:54:37.853Z,6.83
2023-03-26T03:57:05.652Z,6.81
2023-03-26T03:59:33.345Z,6.81
2023-03-26T04:02:01.017Z,6.82
2023-03-26T04:04:28.765Z,6.83
2023-03-26T04:06:56.405Z,6.82
2023-03-26T04:09:25.485Z,6.85
2023-03-26T04:11:53.104Z,6.86
2023-03-26T04:14:20.775Z,6.86
2023-03-26T04:16:49.252Z,6.85
2023-03-26T04:19:17.301Z,6.87
2023-03-26T04:21:44.932Z,6.86
2023-03-26T04:24:12.808Z,6.86
2023-03-26T04:26:42.075Z,6.87
2023-03-26T04:29:12.822Z,6.87
2023-03-26T04:31:40.542Z,6.88
2023-03-26T04:34:13.555Z,6.90
2023-03-26T04:36:42.336Z,6.88
2023-03-26T04:39:12.162Z,6.90
2023-03-26T04:41:42.343Z,6.89
2023-03-26T04:44:10.037Z,6.90
2023-03-26T04:46:37.749Z,6.90
2023-03-26T04:49:05.521Z,6.88
2023-03-26T04:51:38.630Z,6.89
2023-03-26T04:54:08.063Z,6.88
2023-03-26T04:56:44.185Z,6.85
2023-03-26T04:59:14.891Z,6.80
2023-03-26T05:01:46.016Z,6.78
2023-03-26T05:04:14.252Z,6.75
2023-03-26T05:06:42.889Z,6.73
2023-03-26T05:09:11.166Z,6.74
2023-03-26T05:11:38.839Z,6.72
2023-03-26T05:14:07.884Z,6.73
2023-03-26T05:16:36.147Z,6.71
2023-03-26T05:19:03.915Z,6.71
2023-03-26T05:21:31.609Z,6.71
2023-03-26T05:23:59.422Z,6.73
2023-03-26T05:26:27.193Z,6.75
2023-03-26T05:28:54.850Z,6.75
2023-03-26T05:31:23.869Z,6.77
2023-03-26T05:33:52.011Z,6.79
2023-03-26T05:36:19.936Z,6.80
2023-03-26T05:38:49.535Z,6.83
2023-03-26T05:41:18.154Z,6.85
2023-03-26T05:43:47.204Z,6.87
2023-03-26T05:46:15.068Z,6.86
2023-03-26T05:48:44.104Z,6.84
2023-03-26T05:51:12.377Z,6.85
2023-03-26T05:53:40.065Z,6.88
2023-03-26T05:56:08.372Z,6.90
2023-03-26T05:58:36.587Z,6.92
2023-03-26T06:01:08.495Z,6.95
2023-03-26T06:03:38.122Z,6.96
2023-03-26T06:06:09.986Z,6.99
2023-03-26T06:08:37.707Z,6.99
2023-03-26T06:11:08.038Z,7.00
2023-03-26T06:13:35.785Z,6.96
2023-03-26T06:16:03.486Z,6.96
2023-03-26T06:18:31.418Z,6.99
2023-03-26T06:21:00.218Z,6.96
2023-03-26T06:23:29.416Z,6.88
2023-03-26T06:25:57.185Z,6.86
2023-03-26T06:28:24.851Z,6.87
2023-03-26T06:30:53.369Z,6.88
2023-03-26T06:33:23.472Z,6.87
2023-03-26T06:35:52.249Z,6.83
2023-03-26T06:38:20.005Z,6.83
2023-03-26T06:40:49.084Z,6.80
2023-03-26T06:43:16.810Z,6.82
2023-03-26T06:45:44.764Z,6.82
2023-03-26T06:48:12.442Z,6.86
2023-03-26T06:50:40.100Z,6.86
2023-03-26T06:53:07.712Z,6.78
2023-03-26T06:55:35.423Z,6.66
2023-03-26T06:58:04.430Z,6.64
2023-03-26T07:00:32.119Z,6.64
2023-03-26T07:02:59.776Z,6.66
2023-03-26T07:05:27.471Z,6.68
2023-03-26T07:07:55.093Z,6.67
2023-03-26T07:10:22.820Z,6.73
2023-03-26T07:12:50.472Z,6.71
2023-03-26T07:15:19.728Z,6.74
2023-03-26T07:17:47.450Z,6.76
2023-03-26T07:20:15.394Z,6.78
2023-03-26T07:22:43.736Z,6.80
2023-03-26T07:25:15.550Z,6.74
2023-03-26T07:27:48.229Z,6.73
2023-03-26T07:30:16.989Z,6.71
2023-03-26T07:32:51.200Z,6.71
2023-03-26T07:35:22.084Z,6.73
2023-03-26T07:37:59.293Z,6.73
2023-03-26T07:40:41.708Z,6.74
2023-03-26T07:43:15.654Z,6.76
2023-03-26T07:45:44.831Z,6.78
2023-03-26T07:48:18.158Z,6.84
2023-03-26T07:50:46.605Z,6.89
2023-03-26T07:53:15.243Z,6.93
2023-03-26T07:55:48.405Z,6.97
2023-03-26T07:58:27.124Z,7.01
2023-03-26T08:00:58.285Z,7.04
2023-03-26T08:03:42.916Z,6.98
2023-03-26T08:06:14.656Z,6.99
2023-03-26T08:08:49.323Z,7.02
2023-03-26T08:11:28.612Z,7.05
2023-03-26T08:14:03.378Z,7.05
2023-03-26T08:16:36.456Z,7.07
2023-03-26T08:19:11.946Z,7.11
2023-03-26T08:21:44.039Z,7.16
2023-03-26T08:24:19.576Z,7.21
2023-03-26T08:26:51.454Z,7.27
2023-03-26T08:29:21.868Z,7.32
2023-03-26T08:31:50.375Z,7.31
2023-03-26T08:34:19.421Z,7.35
2023-03-26T08:36:47.592Z,7.33
2023-03-26T08:39:15.323Z,7.38
2023-03-26T08:42:24.836Z,7.40
2023-03-26T08:45:42.926Z,7.42
2023-03-26T08:48:37.062Z,7.41
2023-03-26T08:51:31.119Z,7.42
2023-03-26T08:54:50.629Z,7.35
2023-03-26T08:57:33.938Z,7.29
2023-03-26T09:00:21.800Z,7.24
2023-03-26T09:03:18.763Z,7.30
2023-03-26T09:05:59.304Z,7.34
2023-03-26T09:08:54.382Z,7.29
2023-03-26T09:11:40.250Z,7.27
2023-03-26T09:14:47.969Z,7.22
2023-03-26T09:17:25.572Z,7.17
2023-03-26T09:20:26.538Z,7.16
2023-03-26T09:23:16.189Z,7.12
2023-03-26T09:26:02.703Z,7.12
2023-03-26T09:29:12.159Z,7.18
2023-03-26T09:32:02.401Z,7.23
2023-03-26T09:34:31.750Z,7.20
2023-03-26T09:37:15.559Z,7.24
2023-03-26T09:39:51.243Z,7.23
2023-03-26T09:42:25.638Z,7.20
2023-03-26T09:45:18.618Z,7.23
2023-03-26T09:48:34.500Z,7.29
2023-03-26T09:51:30.174Z,7.32
2023-03-26T09:54:07.156Z,7.35
2023-03-26T09:56:42.071Z,7.45
2023-03-26T09:59:26.510Z,7.44
2023-03-26T10:01:59.117Z,7.47
2023-03-26T10:04:59.550Z,7.33
2023-03-26T10:07:50.402Z,7.33
2023-03-26T10:10:27.229Z,7.38
2023-03-26T10:13:11.621Z,7.32
2023-03-26T10:15:57.210Z,7.32
2023-03-26T10:18:32.785Z,7.28
2023-03-26T10:21:04.563Z,7.29
2023-03-26T10:23:49.926Z,7.31
2023-03-26T10:26:32.341Z,7.27
2023-03-26T10:29:06.152Z,7.14
2023-03-26T10:31:40.893Z,6.94
2023-03-26T10:34:28.708Z,6.97
2023-03-26T10:36:59.748Z,6.97
2023-03-26T10:39:39.417Z,7.00
2023-03-26T10:42:20.774Z,6.98
2023-03-26T10:45:00.902Z,7.03
2023-03-26T10:47:39.341Z,7.03
2023-03-26T10:50:24.823Z,7.02
2023-03-26T10:52:55.810Z,7.09
2023-03-26T10:55:28.401Z,7.09
2023-03-26T10:57:57.606Z,7.14
2023-03-26T11:00:27.273Z,7.15
2023-03-26T11:03:18.919Z,7.03
2023-03-26T11:05:50.328Z,7.01
2023-03-26T11:08:31.833Z,6.99
2023-03-26T11:11:02.230Z,7.09
2023-03-26T11:13:40.997Z,7.04
2023-03-26T11:16:15.582Z,7.10
2023-03-26T11:18:47.731Z,7.10
2023-03-26T11:21:20.680Z,7.08
2023-03-26T11:24:05.090Z,7.08
2023-03-26T11:26:39.602Z,7.08
2023-03-26T11:29:32.271Z,7.14
2023-03-26T11:32:05.683Z,7.14
2023-03-26T11:34:38.409Z,7.16
2023-03-26T11:37:08.072Z,7.19
2023-03-26T11:39:44.232Z,7.23
2023-03-26T11:42:14.962Z,7.32
2023-03-26T11:44:46.694Z,7.37
2023-03-26T11:47:17.470Z,7.45
2023-03-26T11:49:47.474Z,7.45
2023-03-26T11:52:15.798Z,7.46
2023-03-26T11:54:48.190Z,7.58
2023-03-26T11:57:19.693Z,7.70
2023-03-26T11:59:57.181Z,7.71
2023-03-26T12:02:32.354Z,7.73
2023-03-26T12:05:20.858Z,7.83
2023-03-26T12:07:53.642Z,7.88
2023-03-26T12:10:28.039Z,7.98
2023-03-26T12:12:57.994Z,8.16
2023-03-26T12:15:26.667Z,8.25
2023-03-26T12:17:58.685Z,8.16
2023-03-26T12:20:38.590Z,8.28
2023-03-26T12:23:08.223Z,8.41
2023-03-26T12:25:37.385Z,8.50
2023-03-26T12:28:06.640Z,8.60
2023-03-26T12:30:37.070Z,8.59
2023-03-26T12:33:07.063Z,8.62
2023-03-26T12:35:37.057Z,8.60
2023-03-26T12:38:23.692Z,8.50
2023-03-26T12:41:05.201Z,8.56
2023-03-26T12:44:53.291Z,8.60
2023-03-26T12:47:57.602Z,8.57
2023-03-26T12:49:14.972Z,8.61
2023-03-26T12:51:49.454Z,8.64
2023-03-26T12:54:28.840Z,8.69
2023-03-26T12:57:12.337Z,8.74
2023-03-26T13:00:00.181Z,8.65
2023-03-26T13:02:50.245Z,8.70
2023-03-26T13:05:31.765Z,8.77
2023-03-26T13:08:15.240Z,8.73
2023-03-26T13:10:51.570Z,8.81
2023-03-26T13:13:32.360Z,8.77
2023-03-26T13:16:02.022Z,8.78
2023-03-26T13:18:44.096Z,8.84
2023-03-26T13:21:14.119Z,8.87
2023-03-26T13:23:47.753Z,8.83
2023-03-26T13:26:26.399Z,8.82
2023-03-26T13:28:58.461Z,8.86
2023-03-26T13:31:29.391Z,8.82
2023-03-26T13:34:01.562Z,8.84
2023-03-26T13:36:36.099Z,8.83
2023-03-26T13:39:14.486Z,8.91
2023-03-26T13:41:53.381Z,8.88
2023-03-26T13:44:27.599Z,8.86
2023-03-26T13:46:58.627Z,8.94
2023-03-26T13:49:33.552Z,8.86
2023-03-26T13:52:04.432Z,8.86
2023-03-26T13:54:35.857Z,8.89
2023-03-26T13:57:06.716Z,8.74
2023-03-26T13:59:39.490Z,8.77
2023-03-26T14:02:14.978Z,8.84
2023-03-26T14:04:46.402Z,8.84
2023-03-26T14:07:20.956Z,8.87
2023-03-26T14:09:53.004Z,8.88
2023-03-26T14:12:48.823Z,8.98
2023-03-26T14:15:19.490Z,9.00
2023-03-26T14:17:51.153Z,9.02
2023-03-26T14:20:30.128Z,9.03
2023-03-26T14:23:17.412Z,9.06
2023-03-26T14:25:58.659Z,9.04
2023-03-26T14:28:49.484Z,9.08
2023-03-26T14:31:23.625Z,9.00
2023-03-26T14:34:04.763Z,8.87
2023-03-26T14:37:07.336Z,8.94
2023-03-26T14:39:55.417Z,8.94
2023-03-26T14:42:29.591Z,8.98
2023-03-26T14:45:09.873Z,8.97
2023-03-26T14:47:42.347Z,8.99
2023-03-26T14:50:31.549Z,8.96
2023-03-26T14:53:01.908Z,8.99
2023-03-26T14:55:50.853Z,9.07
2023-03-26T14:58:35.354Z,9.03
2023-03-26T15:01:22.777Z,9.06
2023-03-26T15:04:19.560Z,9.08
2023-03-26T15:07:22.996Z,9.05
2023-03-26T15:10:12.812Z,9.02
2023-03-26T15:12:53.033Z,8.99
2023-03-26T15:15:55.236Z,8.94
2023-03-26T15:18:50.407Z,8.90
2023-03-26T15:21:53.473Z,8.77
2023-03-26T15:24:56.350Z,8.53
2023-03-26T15:27:51.972Z,7.99
2023-03-26T15:30:57.891Z,7.66
2023-03-26T15:34:04.371Z,7.55
2023-03-26T15:36:56.391Z,7.48
2023-03-26T15:40:14.935Z,7.32
2023-03-26T15:42:52.855Z,7.30
2023-03-26T15:45:35.323Z,7.13
2023-03-26T15:48:51.678Z,7.02
2023-03-26T15:51:47.397Z,6.74
2023-03-26T15:54:23.805Z,6.45
2023-03-26T15:57:00.433Z,6.44
2023-03-26T15:59:38.351Z,6.53
2023-03-26T16:02:16.211Z,6.51
2023-03-26T16:04:50.610Z,6.58
2023-03-26T16:07:38.328Z,6.65
2023-03-26T16:10:22.121Z,6.66
2023-03-26T16:12:56.791Z,6.71
2023-03-26T16:15:29.366Z,6.78
2023-03-26T16:18:33.954Z,6.83
2023-03-26T16:21:37.808Z,6.72
2023-03-26T16:24:28.799Z,6.58
2023-03-26T16:27:07.824Z,6.58
2023-03-26T16:29:36.382Z,6.60
2023-03-26T16:32:16.554Z,6.54
2023-03-26T16:34:50.609Z,6.53
2023-03-26T16:37:40.882Z,6.60
2023-03-26T16:40:29.602Z,6.64
2023-03-26T16:43:05.110Z,6.53
2023-03-26T16:45:37.106Z,6.52
2023-03-26T16:48:11.476Z,6.54
2023-03-26T16:50:44.753Z,6.49
2023-03-26T16:53:24.789Z,6.41
2023-03-26T16:55:58.272Z,6.29
2023-03-26T16:58:31.550Z,6.33
2023-03-26T17:01:08.656Z,6.35
2023-03-26T17:03:55.095Z,6.31
2023-03-26T17:06:31.614Z,6.33
2023-03-26T17:09:04.303Z,6.33
2023-03-26T17:11:40.882Z,6.36
2023-03-26T17:14:17.787Z,6.38
2023-03-26T17:16:49.171Z,6.41
2023-03-26T17:19:28.088Z,6.41
2023-03-26T17:21:57.607Z,6.41
2023-03-26T17:24:30.909Z,6.42
2023-03-26T17:27:04.852Z,6.43
2023-03-26T17:29:44.842Z,6.40
2023-03-26T17:32:15.210Z,6.44
2023-03-26T17:34:53.988Z,6.44
2023-03-26T17:37:46.486Z,6.36
2023-03-26T17:40:48.950Z,6.17
2023-03-26T17:43:40.406Z,5.94
2023-03-26T17:46:19.833Z,5.90
2023-03-26T17:48:49.301Z,5.83
2023-03-26T17:51:33.523Z,5.59
2023-03-26T17:54:01.482Z,5.51
2023-03-26T17:56:32.114Z,5.24
2023-03-26T17:59:11.843Z,5.17
2023-03-26T18:01:42.285Z,5.14
2023-03-26T18:04:15.623Z,5.12
2023-03-26T18:06:54.723Z,5.10
2023-03-26T18:09:33.329Z,4.98
2023-03-26T18:12:30.117Z,4.97
2023-03-26T18:15:11.233Z,4.92
2023-03-26T18:17:44.739Z,4.81
2023-03-26T18:20:21.427Z,4.69
2023-03-26T18:22:49.726Z,4.67
2023-03-26T18:25:23.836Z,4.70
2023-03-26T18:27:51.549Z,4.76
2023-03-26T18:30:22.582Z,4.74
2023-03-26T18:33:00.797Z,4.73
2023-03-26T18:35:40.718Z,4.74
2023-03-26T18:38:13.986Z,4.71
2023-03-26T18:40:42.931Z,4.73
2023-03-26T18:43:28.613Z,4.67
2023-03-26T18:46:04.676Z,4.69
2023-03-26T18:48:32.405Z,4.66
2023-03-26T18:51:05.799Z,4.68
2023-03-26T18:53:37.283Z,4.64
2023-03-26T18:56:20.477Z,4.59
2023-03-26T18:58:52.013Z,4.55
2023-03-26T19:01:25.859Z,4.55
2023-03-26T19:03:54.645Z,4.55
2023-03-26T19:06:23.446Z,4.59
2023-03-26T19:08:52.308Z,4.61
2023-03-26T19:11:20.192Z,4.65
2023-03-26T19:13:59.262Z,4.69
2023-03-26T19:16:33.631Z,4.71
2023-03-26T19:19:02.204Z,4.69
2023-03-26T19:21:29.877Z,4.71
2023-03-26T19:23:57.614Z,4.70
2023-03-26T19:26:25.323Z,4.73
2023-03-26T19:28:54.431Z,4.71
2023-03-26T19:31:25.821Z,4.71
2023-03-26T19:33:58.959Z,4.74
2023-03-26T19:36:30.354Z,4.76
2023-03-26T19:39:10.672Z,4.79
2023-03-26T19:41:40.992Z,4.79
2023-03-26T19:44:19.296Z,4.77
2023-03-26T19:46:53.246Z,4.79
2023-03-26T19:49:32.023Z,4.82
2023-03-26T19:52:14.835Z,4.80
2023-03-26T19:54:59.951Z,4.80
2023-03-26T19:57:30.056Z,4.83
2023-03-26T19:59:58.400Z,4.78
2023-03-26T20:02:26.652Z,4.83
2023-03-26T20:04:55.846Z,4.83
2023-03-26T20:07:35.557Z,4.77
2023-03-26T20:10:05.599Z,4.82
2023-03-26T20:12:33.575Z,4.81
2023-03-26T20:15:01.826Z,4.83
2023-03-26T20:17:30.879Z,4.83
2023-03-26T20:20:00.055Z,4.83
2023-03-26T20:22:27.747Z,4.85
2023-03-26T20:24:55.389Z,4.82
2023-03-26T20:27:23.158Z,4.80
2023-03-26T20:29:50.786Z,4.84
2023-03-26T20:32:20.137Z,4.83
2023-03-26T20:34:49.605Z,4.83
2023-03-26T20:37:18.685Z,4.83
2023-03-26T20:39:46.888Z,4.83
2023-03-26T20:42:16.025Z,4.82
2023-03-26T20:44:44.118Z,4.80
2023-03-26T20:47:12.643Z,4.79
2023-03-26T20:49:41.085Z,4.80
2023-03-26T20:52:08.779Z,4.73
2023-03-26T20:54:37.766Z,4.77
2023-03-26T20:57:05.413Z,4.80
2023-03-26T20:59:33.126Z,4.75
2023-03-26T21:02:01.284Z,4.72
2023-03-26T21:04:28.994Z,4.75
2023-03-26T21:07:07.261Z,4.71
2023-03-26T21:09:45.020Z,4.70
2023-03-26T21:12:29.499Z,4.76
2023-03-26T21:14:57.643Z,4.71
2023-03-26T21:17:26.177Z,4.71
2023-03-26T21:19:54.697Z,4.69
2023-03-26T21:22:31.662Z,4.66
2023-03-26T21:25:18.154Z,4.66
2023-03-26T21:27:58.253Z,4.65
2023-03-26T21:30:26.511Z,4.65
2023-03-26T21:32:54.500Z,4.62
2023-03-26T21:35:22.975Z,4.58
2023-03-26T21:37:51.180Z,4.54
2023-03-26T21:40:21.061Z,4.55
2023-03-26T21:42:50.675Z,4.55
2023-03-26T21:45:19.368Z,4.50
2023-03-26T21:47:47.502Z,4.47
2023-03-26T21:50:17.535Z,4.45
2023-03-26T21:52:48.252Z,4.42
2023-03-26T21:55:17.733Z,4.41
2023-03-26T21:58:07.290Z,4.39
2023-03-26T22:00:43.461Z,4.39
2023-03-26T22:03:16.564Z,4.38
2023-03-26T22:05:49.358Z,4.39
2023-03-26T22:08:23.217Z,4.38
2023-03-26T22:10:51.179Z,4.37
2023-03-26T22:13:20.126Z,4.40
2023-03-26T22:15:47.832Z,4.38
2023-03-26T22:18:15.462Z,4.38
2023-03-26T22:20:43.336Z,4.35
2023-03-26T22:23:11.925Z,4.37
2023-03-26T22:25:40.047Z,4.34
2023-03-26T22:28:07.624Z,4.33
2023-03-26T22:30:36.660Z,4.30
2023-03-26T22:33:04.455Z,4.30
2023-03-26T22:35:32.156Z,4.31
2023-03-26T22:38:00.844Z,4.30
2023-03-26T22:40:29.021Z,4.33
2023-03-26T22:42:56.640Z,4.32
2023-03-26T22:45:24.485Z,4.34
2023-03-26T22:47:53.621Z,4.33
2023-03-26T22:50:31.973Z,4.34
2023-03-26T22:52:59.597Z,4.35
2023-03-26T22:55:28.216Z,4.31
2023-03-26T22:57:56.909Z,4.31
2023-03-26T23:00:26.336Z,4.30
2023-03-26T23:03:00.230Z,4.30
2023-03-26T23:05:28.460Z,4.25
2023-03-26T23:07:57.136Z,4.26
2023-03-26T23:10:24.772Z,4.27
2023-03-26T23:12:53.146Z,4.24
2023-03-26T23:15:20.839Z,4.23
2023-03-26T23:17:54.228Z,4.22
2023-03-26T23:20:24.042Z,4.22
2023-03-26T23:22:52.402Z,4.20
2023-03-26T23:25:20.225Z,4.20
2023-03-26T23:27:48.362Z,4.18
2023-03-26T23:30:16.667Z,4.17
2023-03-26T23:32:44.407Z,4.16
2023-03-26T23:35:12.157Z,4.14
2023-03-26T23:37:42.522Z,4.11
2023-03-26T23:40:12.485Z,4.11
2023-03-26T23:42:40.121Z,4.07
2023-03-26T23:45:09.223Z,4.06
2023-03-26T23:47:37.380Z,4.04
2023-03-26T23:50:06.232Z,4.03
2023-03-26T23:52:33.855Z,4.06
2023-03-26T23:55:02.888Z,4.05
2023-03-26T23:57:30.993Z,4.06
2023-03-26T23:59:58.989Z,4.07
